createdAt,value
2023-05-17T00:00:02.850Z,998.30
2023-05-17T00:00:13.353Z,998.30
2023-05-17T00:00:23.845Z,998.30
2023-05-17T00:00:34.358Z,998.30
2023-05-17T00:00:44.852Z,998.30
2023-05-17T00:00:55.366Z,998.30
2023-05-17T00:01:05.870Z,998.30
2023-05-17T00:01:16.367Z,998.30
2023-05-17T00:01:26.871Z,998.30
2023-05-17T00:01:37.379Z,998.30
2023-05-17T00:01:47.882Z,998.30
2023-05-17T00:01:58.384Z,998.30
2023-05-17T00:02:08.890Z,998.30
2023-05-17T00:02:19.412Z,998.30
2023-05-17T00:02:29.943Z,998.30
2023-05-17T00:02:40.471Z,998.29
2023-05-17T00:02:50.985Z,998.30
2023-05-17T00:03:01.464Z,998.29
2023-05-17T00:03:12.024Z,998.29
2023-05-17T00:03:22.441Z,998.29
2023-05-17T00:03:32.946Z,998.29
2023-05-17T00:03:43.464Z,998.28
2023-05-17T00:03:53.955Z,998.28
2023-05-17T00:04:04.500Z,998.28
2023-05-17T00:04:14.968Z,998.28
2023-05-17T00:04:25.542Z,998.27
2023-05-17T00:04:36.007Z,998.27
2023-05-17T00:04:46.512Z,998.27
2023-05-17T00:04:57.929Z,998.27
2023-05-17T00:05:07.498Z,998.26
2023-05-17T00:05:18.074Z,998.26
2023-05-17T00:05:28.767Z,998.26
2023-05-17T00:05:39.002Z,998.25
2023-05-17T00:05:49.546Z,998.25
2023-05-17T00:06:00.024Z,998.25
2023-05-17T00:06:10.542Z,998.25
2023-05-17T00:06:21.181Z,998.25
2023-05-17T00:06:31.599Z,998.25
2023-05-17T00:06:42.030Z,998.24
2023-05-17T00:06:52.542Z,998.24
2023-05-17T00:07:03.061Z,998.24
2023-05-17T00:07:13.550Z,998.24
2023-05-17T00:07:24.074Z,998.24
2023-05-17T00:07:34.612Z,998.24
2023-05-17T00:07:45.059Z,998.23
2023-05-17T00:07:55.571Z,998.23
2023-05-17T00:08:06.082Z,998.23
2023-05-17T00:08:16.581Z,998.23
2023-05-17T00:08:27.085Z,998.23
2023-05-17T00:08:37.586Z,998.22
2023-05-17T00:08:48.090Z,998.22
2023-05-17T00:08:58.608Z,998.22
2023-05-17T00:09:09.113Z,998.22
2023-05-17T00:09:19.659Z,998.22
2023-05-17T00:09:30.135Z,998.22
2023-05-17T00:09:40.630Z,998.22
2023-05-17T00:09:51.126Z,998.22
2023-05-17T00:10:01.654Z,998.22
2023-05-17T00:10:12.142Z,998.23
2023-05-17T00:10:22.650Z,998.22
2023-05-17T00:10:33.163Z,998.23
2023-05-17T00:10:43.650Z,998.23
2023-05-17T00:10:54.148Z,998.23
2023-05-17T00:11:04.676Z,998.23
2023-05-17T00:11:15.161Z,998.23
2023-05-17T00:11:25.677Z,998.23
2023-05-17T00:11:36.180Z,998.23
2023-05-17T00:11:46.685Z,998.23
2023-05-17T00:11:57.187Z,998.23
2023-05-17T00:12:07.696Z,998.23
2023-05-17T00:12:18.193Z,998.24
2023-05-17T00:12:28.708Z,998.24
2023-05-17T00:12:39.225Z,998.24
2023-05-17T00:12:49.698Z,998.25
2023-05-17T00:13:00.212Z,998.24
2023-05-17T00:13:10.719Z,998.25
2023-05-17T00:13:21.229Z,998.25
2023-05-17T00:13:31.745Z,998.25
2023-05-17T00:13:42.231Z,998.25
2023-05-17T00:13:52.727Z,998.25
2023-05-17T00:14:03.230Z,998.25
2023-05-17T00:14:13.768Z,998.25
2023-05-17T00:14:24.234Z,998.25
2023-05-17T00:14:34.740Z,998.25
2023-05-17T00:14:45.248Z,998.25
2023-05-17T00:14:55.745Z,998.25
2023-05-17T00:15:06.251Z,998.25
2023-05-17T00:15:16.760Z,998.25
2023-05-17T00:15:27.420Z,998.25
2023-05-17T00:15:37.768Z,998.26
2023-05-17T00:15:48.276Z,998.25
2023-05-17T00:15:58.776Z,998.25
2023-05-17T00:16:09.272Z,998.26
2023-05-17T00:16:19.780Z,998.26
2023-05-17T00:16:30.290Z,998.26
2023-05-17T00:16:40.871Z,998.26
2023-05-17T00:16:51.296Z,998.26
2023-05-17T00:17:01.803Z,998.26
2023-05-17T00:17:12.294Z,998.27
2023-05-17T00:17:22.804Z,998.26
2023-05-17T00:17:33.499Z,998.26
2023-05-17T00:17:43.849Z,998.27
2023-05-17T00:17:54.432Z,998.26
2023-05-17T00:18:04.920Z,998.27
2023-05-17T00:18:15.398Z,998.26
2023-05-17T00:18:25.993Z,998.26
2023-05-17T00:18:36.475Z,998.27
2023-05-17T00:18:46.996Z,998.27
2023-05-17T00:18:57.417Z,998.27
2023-05-17T00:19:08.051Z,998.27
2023-05-17T00:19:18.509Z,998.28
2023-05-17T00:19:28.908Z,998.28
2023-05-17T00:19:39.376Z,998.28
2023-05-17T00:19:50.072Z,998.28
2023-05-17T00:20:00.371Z,998.29
2023-05-17T00:20:10.873Z,998.29
2023-05-17T00:20:21.372Z,998.29
2023-05-17T00:20:31.883Z,998.29
2023-05-17T00:20:42.387Z,998.29
2023-05-17T00:20:52.902Z,998.29
2023-05-17T00:21:03.393Z,998.29
2023-05-17T00:21:13.905Z,998.29
2023-05-17T00:21:24.560Z,998.29
2023-05-17T00:21:34.901Z,998.29
2023-05-17T00:21:45.402Z,998.28
2023-05-17T00:21:55.957Z,998.28
2023-05-17T00:22:06.433Z,998.27
2023-05-17T00:22:16.910Z,998.28
2023-05-17T00:22:27.422Z,998.27
2023-05-17T00:22:37.923Z,998.27
2023-05-17T00:22:48.432Z,998.27
2023-05-17T00:22:58.937Z,998.28
2023-05-17T00:23:09.447Z,998.27
2023-05-17T00:23:19.939Z,998.27
2023-05-17T00:23:30.512Z,998.27
2023-05-17T00:23:40.953Z,998.27
2023-05-17T00:23:51.448Z,998.27
2023-05-17T00:24:01.965Z,998.27
2023-05-17T00:24:12.462Z,998.28
2023-05-17T00:24:22.981Z,998.27
2023-05-17T00:24:33.478Z,998.27
2023-05-17T00:24:43.979Z,998.27
2023-05-17T00:24:54.484Z,998.27
2023-05-17T00:25:04.999Z,998.27
2023-05-17T00:25:15.496Z,998.27
2023-05-17T00:25:26.177Z,998.27
2023-05-17T00:25:36.505Z,998.26
2023-05-17T00:25:47.001Z,998.27
2023-05-17T00:25:57.515Z,998.26
2023-05-17T00:26:08.024Z,998.27
2023-05-17T00:26:18.521Z,998.26
2023-05-17T00:26:29.018Z,998.26
2023-05-17T00:26:39.551Z,998.27
2023-05-17T00:26:50.047Z,998.27
2023-05-17T00:27:00.574Z,998.27
2023-05-17T00:27:11.034Z,998.27
2023-05-17T00:27:21.548Z,998.27
2023-05-17T00:27:32.044Z,998.27
2023-05-17T00:27:42.554Z,998.27
2023-05-17T00:27:53.066Z,998.27
2023-05-17T00:28:03.552Z,998.27
2023-05-17T00:28:14.108Z,998.27
2023-05-17T00:28:25.093Z,998.27
2023-05-17T00:28:35.573Z,998.27
2023-05-17T00:28:46.070Z,998.28
2023-05-17T00:28:56.584Z,998.28
2023-05-17T00:29:07.077Z,998.28
2023-05-17T00:29:17.576Z,998.28
2023-05-17T00:29:28.102Z,998.28
2023-05-17T00:29:38.589Z,998.28
2023-05-17T00:29:49.102Z,998.28
2023-05-17T00:29:59.605Z,998.29
2023-05-17T00:30:10.092Z,998.29
2023-05-17T00:30:20.599Z,998.29
2023-05-17T00:30:31.102Z,998.29
2023-05-17T00:30:41.624Z,998.30
2023-05-17T00:30:52.107Z,998.30
2023-05-17T00:31:02.615Z,998.30
2023-05-17T00:31:13.123Z,998.31
2023-05-17T00:31:23.622Z,998.31
2023-05-17T00:31:34.126Z,998.31
2023-05-17T00:31:44.633Z,998.32
2023-05-17T00:31:55.132Z,998.31
2023-05-17T00:32:05.635Z,998.32
2023-05-17T00:32:16.140Z,998.32
2023-05-17T00:32:26.678Z,998.32
2023-05-17T00:32:37.235Z,998.32
2023-05-17T00:32:47.664Z,998.32
2023-05-17T00:32:58.165Z,998.33
2023-05-17T00:33:08.746Z,998.33
2023-05-17T00:33:19.161Z,998.34
2023-05-17T00:33:29.666Z,998.34
2023-05-17T00:33:40.175Z,998.35
2023-05-17T00:33:50.683Z,998.35
2023-05-17T00:34:01.181Z,998.36
2023-05-17T00:34:11.687Z,998.36
2023-05-17T00:34:22.195Z,998.35
2023-05-17T00:34:32.705Z,998.35
2023-05-17T00:34:43.197Z,998.35
2023-05-17T00:34:53.727Z,998.35
2023-05-17T00:35:04.225Z,998.35
2023-05-17T00:35:14.746Z,998.35
2023-05-17T00:35:25.266Z,998.34
2023-05-17T00:35:35.720Z,998.35
2023-05-17T00:35:46.222Z,998.35
2023-05-17T00:35:56.718Z,998.35
2023-05-17T00:36:07.227Z,998.35
2023-05-17T00:36:17.724Z,998.35
2023-05-17T00:36:28.250Z,998.35
2023-05-17T00:36:38.734Z,998.36
2023-05-17T00:36:49.235Z,998.35
2023-05-17T00:36:59.747Z,998.35
2023-05-17T00:37:10.258Z,998.35
2023-05-17T00:37:20.748Z,998.35
2023-05-17T00:37:31.280Z,998.35
2023-05-17T00:37:41.752Z,998.35
2023-05-17T00:37:52.270Z,998.34
2023-05-17T00:38:02.764Z,998.34
2023-05-17T00:38:13.276Z,998.34
2023-05-17T00:38:23.763Z,998.34
2023-05-17T00:38:34.282Z,998.34
2023-05-17T00:38:44.788Z,998.35
2023-05-17T00:38:55.283Z,998.35
2023-05-17T00:39:05.781Z,998.35
2023-05-17T00:39:16.277Z,998.35
2023-05-17T00:39:26.798Z,998.35
2023-05-17T00:39:37.284Z,998.35
2023-05-17T00:39:47.798Z,998.35
2023-05-17T00:39:58.301Z,998.35
2023-05-17T00:40:08.806Z,998.35
2023-05-17T00:40:19.307Z,998.35
2023-05-17T00:40:29.816Z,998.35
2023-05-17T00:40:40.330Z,998.36
2023-05-17T00:40:50.822Z,998.36
2023-05-17T00:41:01.355Z,998.35
2023-05-17T00:41:11.822Z,998.35
2023-05-17T00:41:22.328Z,998.35
2023-05-17T00:41:32.832Z,998.35
2023-05-17T00:41:43.342Z,998.36
2023-05-17T00:41:53.852Z,998.36
2023-05-17T00:42:04.345Z,998.36
2023-05-17T00:42:14.852Z,998.36
2023-05-17T00:42:25.377Z,998.36
2023-05-17T00:42:35.902Z,998.36
2023-05-17T00:42:46.361Z,998.36
2023-05-17T00:42:56.869Z,998.36
2023-05-17T00:43:07.374Z,998.36
2023-05-17T00:43:17.882Z,998.35
2023-05-17T00:43:28.385Z,998.35
2023-05-17T00:43:38.899Z,998.35
2023-05-17T00:43:49.406Z,998.36
2023-05-17T00:43:59.901Z,998.36
2023-05-17T00:44:10.432Z,998.36
2023-05-17T00:44:20.934Z,998.36
2023-05-17T00:44:31.413Z,998.36
2023-05-17T00:44:41.924Z,998.36
2023-05-17T00:44:52.427Z,998.36
2023-05-17T00:45:02.954Z,998.36
2023-05-17T00:45:13.449Z,998.36
2023-05-17T00:45:23.953Z,998.36
2023-05-17T00:45:34.461Z,998.36
2023-05-17T00:45:44.959Z,998.36
2023-05-17T00:45:55.449Z,998.37
2023-05-17T00:46:05.963Z,998.37
2023-05-17T00:46:16.464Z,998.37
2023-05-17T00:46:26.960Z,998.37
2023-05-17T00:46:37.468Z,998.37
2023-05-17T00:46:47.972Z,998.37
2023-05-17T00:46:58.506Z,998.36
2023-05-17T00:47:09.046Z,998.36
2023-05-17T00:47:19.608Z,998.36
2023-05-17T00:47:30.034Z,998.37
2023-05-17T00:47:40.544Z,998.37
2023-05-17T00:47:51.077Z,998.37
2023-05-17T00:48:01.582Z,998.37
2023-05-17T00:48:12.109Z,998.37
2023-05-17T00:48:22.637Z,998.37
2023-05-17T00:48:33.194Z,998.37
2023-05-17T00:48:43.529Z,998.38
2023-05-17T00:48:54.026Z,998.38
2023-05-17T00:49:04.551Z,998.38
2023-05-17T00:49:15.042Z,998.39
2023-05-17T00:49:25.537Z,998.39
2023-05-17T00:49:36.049Z,998.39
2023-05-17T00:49:46.539Z,998.39
2023-05-17T00:49:57.048Z,998.40
2023-05-17T00:50:07.561Z,998.40
2023-05-17T00:50:18.062Z,998.40
2023-05-17T00:50:28.559Z,998.40
2023-05-17T00:50:39.063Z,998.40
2023-05-17T00:50:49.575Z,998.39
2023-05-17T00:51:00.079Z,998.39
2023-05-17T00:51:10.574Z,998.39
2023-05-17T00:51:21.099Z,998.39
2023-05-17T00:51:31.963Z,998.39
2023-05-17T00:51:42.102Z,998.38
2023-05-17T00:51:52.597Z,998.38
2023-05-17T00:52:03.089Z,998.38
2023-05-17T00:52:13.631Z,998.38
2023-05-17T00:52:24.114Z,998.38
2023-05-17T00:52:34.617Z,998.38
2023-05-17T00:52:45.107Z,998.38
2023-05-17T00:52:55.610Z,998.38
2023-05-17T00:53:06.127Z,998.38
2023-05-17T00:53:16.641Z,998.38
2023-05-17T00:53:27.129Z,998.38
2023-05-17T00:53:37.655Z,998.38
2023-05-17T00:53:48.122Z,998.39
2023-05-17T00:53:58.646Z,998.39
2023-05-17T00:54:09.133Z,998.39
2023-05-17T00:54:19.656Z,998.39
2023-05-17T00:54:30.143Z,998.40
2023-05-17T00:54:40.676Z,998.40
2023-05-17T00:54:51.183Z,998.40
2023-05-17T00:55:01.654Z,998.40
2023-05-17T00:55:12.164Z,998.41
2023-05-17T00:55:22.683Z,998.41
2023-05-17T00:55:33.189Z,998.42
2023-05-17T00:55:43.713Z,998.42
2023-05-17T00:55:54.193Z,998.42
2023-05-17T00:56:04.693Z,998.42
2023-05-17T00:56:15.191Z,998.43
2023-05-17T00:56:25.728Z,998.43
2023-05-17T00:56:36.223Z,998.43
2023-05-17T00:56:46.717Z,998.43
2023-05-17T00:56:57.259Z,998.43
2023-05-17T00:57:07.736Z,998.43
2023-05-17T00:57:18.268Z,998.43
2023-05-17T00:57:28.743Z,998.43
2023-05-17T00:57:39.271Z,998.43
2023-05-17T00:57:49.772Z,998.43
2023-05-17T00:58:00.263Z,998.43
2023-05-17T00:58:10.760Z,998.43
2023-05-17T00:58:21.276Z,998.42
2023-05-17T00:58:31.767Z,998.42
2023-05-17T00:58:42.280Z,998.42
2023-05-17T00:58:52.794Z,998.42
2023-05-17T00:59:03.283Z,998.42
2023-05-17T00:59:13.788Z,998.41
2023-05-17T00:59:24.290Z,998.41
2023-05-17T00:59:34.789Z,998.41
2023-05-17T00:59:45.313Z,998.41
2023-05-17T00:59:55.801Z,998.41
2023-05-17T01:00:06.307Z,998.41
2023-05-17T01:00:16.810Z,998.41
2023-05-17T01:00:27.320Z,998.41
2023-05-17T01:00:37.819Z,998.40
2023-05-17T01:00:48.325Z,998.40
2023-05-17T01:00:58.826Z,998.40
2023-05-17T01:01:09.336Z,998.41
2023-05-17T01:01:19.838Z,998.41
2023-05-17T01:01:30.342Z,998.41
2023-05-17T01:01:40.848Z,998.41
2023-05-17T01:01:51.351Z,998.41
2023-05-17T01:02:02.414Z,998.41
2023-05-17T01:02:12.854Z,998.41
2023-05-17T01:02:23.505Z,998.41
2023-05-17T01:02:33.965Z,998.41
2023-05-17T01:02:44.477Z,998.41
2023-05-17T01:02:55.063Z,998.42
2023-05-17T01:03:05.456Z,998.42
2023-05-17T01:03:15.952Z,998.42
2023-05-17T01:03:26.626Z,998.42
2023-05-17T01:03:37.015Z,998.41
2023-05-17T01:03:47.627Z,998.41
2023-05-17T01:03:58.000Z,998.41
2023-05-17T01:04:08.506Z,998.41
2023-05-17T01:04:19.031Z,998.41
2023-05-17T01:04:29.416Z,998.42
2023-05-17T01:04:39.953Z,998.42
2023-05-17T01:04:50.516Z,998.42
2023-05-17T01:05:00.994Z,998.42
2023-05-17T01:05:11.460Z,998.43
2023-05-17T01:05:21.936Z,998.43
2023-05-17T01:05:32.463Z,998.43
2023-05-17T01:05:42.953Z,998.44
2023-05-17T01:05:53.497Z,998.43
2023-05-17T01:06:03.956Z,998.44
2023-05-17T01:06:14.468Z,998.43
2023-05-17T01:06:24.971Z,998.44
2023-05-17T01:06:35.567Z,998.43
2023-05-17T01:06:45.982Z,998.43
2023-05-17T01:06:56.481Z,998.43
2023-05-17T01:07:06.997Z,998.43
2023-05-17T01:07:17.490Z,998.43
2023-05-17T01:07:27.993Z,998.43
2023-05-17T01:07:38.492Z,998.43
2023-05-17T01:07:48.995Z,998.43
2023-05-17T01:07:59.508Z,998.43
2023-05-17T01:08:10.014Z,998.43
2023-05-17T01:08:20.526Z,998.43
2023-05-17T01:08:31.011Z,998.43
2023-05-17T01:08:41.517Z,998.43
2023-05-17T01:08:52.016Z,998.44
2023-05-17T01:09:02.553Z,998.43
2023-05-17T01:09:13.043Z,998.44
2023-05-17T01:09:23.533Z,998.44
2023-05-17T01:09:34.032Z,998.44
2023-05-17T01:09:44.557Z,998.44
2023-05-17T01:09:55.031Z,998.44
2023-05-17T01:10:05.553Z,998.45
2023-05-17T01:10:16.043Z,998.45
2023-05-17T01:10:26.574Z,998.45
2023-05-17T01:10:37.050Z,998.45
2023-05-17T01:10:47.555Z,998.45
2023-05-17T01:10:58.097Z,998.45
2023-05-17T01:11:08.560Z,998.45
2023-05-17T01:11:19.059Z,998.45
2023-05-17T01:11:29.579Z,998.45
2023-05-17T01:11:40.072Z,998.45
2023-05-17T01:11:50.589Z,998.45
2023-05-17T01:12:01.074Z,998.45
2023-05-17T01:12:11.585Z,998.45
2023-05-17T01:12:22.084Z,998.45
2023-05-17T01:12:32.587Z,998.45
2023-05-17T01:12:43.086Z,998.45
2023-05-17T01:12:53.594Z,998.45
2023-05-17T01:13:04.099Z,998.46
2023-05-17T01:13:14.598Z,998.47
2023-05-17T01:13:25.102Z,998.46
2023-05-17T01:13:35.617Z,998.46
2023-05-17T01:13:46.116Z,998.47
2023-05-17T01:13:56.621Z,998.47
2023-05-17T01:14:07.127Z,998.47
2023-05-17T01:14:17.649Z,998.47
2023-05-17T01:14:28.139Z,998.47
2023-05-17T01:14:38.636Z,998.47
2023-05-17T01:14:49.144Z,998.47
2023-05-17T01:14:59.704Z,998.47
2023-05-17T01:15:10.145Z,998.48
2023-05-17T01:15:20.644Z,998.49
2023-05-17T01:15:31.142Z,998.49
2023-05-17T01:15:41.650Z,998.49
2023-05-17T01:15:52.144Z,998.49
2023-05-17T01:16:02.753Z,998.49
2023-05-17T01:16:13.151Z,998.49
2023-05-17T01:16:23.664Z,998.49
2023-05-17T01:16:34.157Z,998.49
2023-05-17T01:16:44.666Z,998.50
2023-05-17T01:16:55.169Z,998.50
2023-05-17T01:17:05.695Z,998.50
2023-05-17T01:17:16.228Z,998.50
2023-05-17T01:17:26.772Z,998.50
2023-05-17T01:17:37.234Z,998.51
2023-05-17T01:17:47.805Z,998.50
2023-05-17T01:17:58.778Z,998.50
2023-05-17T01:18:09.303Z,998.50
2023-05-17T01:18:19.818Z,998.50
2023-05-17T01:18:30.302Z,998.50
2023-05-17T01:18:41.353Z,998.50
2023-05-17T01:18:51.746Z,998.50
2023-05-17T01:19:02.294Z,998.50
2023-05-17T01:19:12.797Z,998.50
2023-05-17T01:19:23.247Z,998.51
2023-05-17T01:19:34.075Z,998.51
2023-05-17T01:19:44.788Z,998.51
2023-05-17T01:19:55.380Z,998.52
2023-05-17T01:20:05.802Z,998.52
2023-05-17T01:20:16.251Z,998.52
2023-05-17T01:20:26.812Z,998.53
2023-05-17T01:20:37.473Z,998.53
2023-05-17T01:20:47.729Z,998.53
2023-05-17T01:20:58.246Z,998.53
2023-05-17T01:21:08.765Z,998.54
2023-05-17T01:21:19.246Z,998.54
2023-05-17T01:21:30.244Z,998.54
2023-05-17T01:21:40.769Z,998.54
2023-05-17T01:21:51.287Z,998.55
2023-05-17T01:22:01.766Z,998.55
2023-05-17T01:22:12.263Z,998.56
2023-05-17T01:22:22.760Z,998.56
2023-05-17T01:22:33.264Z,998.56
2023-05-17T01:22:43.764Z,998.56
2023-05-17T01:22:54.270Z,998.56
2023-05-17T01:23:04.767Z,998.55
2023-05-17T01:23:15.267Z,998.56
2023-05-17T01:23:25.784Z,998.56
2023-05-17T01:23:36.279Z,998.55
2023-05-17T01:23:46.790Z,998.55
2023-05-17T01:23:57.301Z,998.55
2023-05-17T01:24:07.792Z,998.54
2023-05-17T01:24:18.311Z,998.55
2023-05-17T01:24:28.809Z,998.54
2023-05-17T01:24:39.324Z,998.54
2023-05-17T01:24:49.807Z,998.54
2023-05-17T01:25:00.316Z,998.54
2023-05-17T01:25:10.817Z,998.54
2023-05-17T01:25:21.316Z,998.53
2023-05-17T01:25:31.830Z,998.53
2023-05-17T01:25:42.348Z,998.53
2023-05-17T01:25:52.840Z,998.54
2023-05-17T01:26:03.329Z,998.54
2023-05-17T01:26:13.843Z,998.54
2023-05-17T01:26:24.846Z,998.53
2023-05-17T01:26:35.350Z,998.54
2023-05-17T01:26:45.848Z,998.54
2023-05-17T01:26:56.392Z,998.54
2023-05-17T01:27:06.865Z,998.54
2023-05-17T01:27:17.359Z,998.55
2023-05-17T01:27:27.863Z,998.55
2023-05-17T01:27:38.370Z,998.55
2023-05-17T01:27:48.874Z,998.55
2023-05-17T01:27:59.372Z,998.55
2023-05-17T01:28:09.891Z,998.56
2023-05-17T01:28:20.400Z,998.56
2023-05-17T01:28:30.903Z,998.56
2023-05-17T01:28:41.400Z,998.56
2023-05-17T01:28:51.888Z,998.56
2023-05-17T01:29:02.396Z,998.56
2023-05-17T01:29:12.895Z,998.56
2023-05-17T01:29:23.407Z,998.56
2023-05-17T01:29:33.902Z,998.57
2023-05-17T01:29:44.439Z,998.57
2023-05-17T01:29:54.912Z,998.57
2023-05-17T01:30:05.422Z,998.57
2023-05-17T01:30:15.926Z,998.57
2023-05-17T01:30:26.422Z,998.57
2023-05-17T01:30:36.944Z,998.57
2023-05-17T01:30:47.452Z,998.57
2023-05-17T01:30:57.932Z,998.58
2023-05-17T01:31:08.428Z,998.58
2023-05-17T01:31:18.946Z,998.58
2023-05-17T01:31:29.439Z,998.58
2023-05-17T01:31:39.945Z,998.59
2023-05-17T01:31:50.448Z,998.59
2023-05-17T01:32:00.961Z,998.59
2023-05-17T01:32:11.450Z,998.59
2023-05-17T01:32:21.960Z,998.59
2023-05-17T01:32:32.490Z,998.60
2023-05-17T01:32:43.030Z,998.60
2023-05-17T01:32:53.618Z,998.60
2023-05-17T01:33:04.025Z,998.61
2023-05-17T01:33:14.583Z,998.61
2023-05-17T01:33:25.046Z,998.61
2023-05-17T01:33:35.563Z,998.62
2023-05-17T01:33:46.160Z,998.62
2023-05-17T01:33:56.618Z,998.62
2023-05-17T01:34:07.007Z,998.62
2023-05-17T01:34:18.000Z,998.62
2023-05-17T01:34:28.522Z,998.63
2023-05-17T01:34:39.001Z,998.64
2023-05-17T01:34:49.504Z,998.64
2023-05-17T01:35:00.007Z,998.64
2023-05-17T01:35:10.519Z,998.64
2023-05-17T01:35:21.035Z,998.64
2023-05-17T01:35:31.607Z,998.64
2023-05-17T01:35:42.028Z,998.64
2023-05-17T01:35:52.526Z,998.64
2023-05-17T01:36:03.026Z,998.64
2023-05-17T01:36:13.537Z,998.64
2023-05-17T01:36:24.039Z,998.64
2023-05-17T01:36:34.551Z,998.64
2023-05-17T01:36:45.137Z,998.64
2023-05-17T01:36:55.546Z,998.64
2023-05-17T01:37:06.048Z,998.64
2023-05-17T01:37:16.562Z,998.64
2023-05-17T01:37:27.056Z,998.64
2023-05-17T01:37:37.559Z,998.64
2023-05-17T01:37:48.062Z,998.64
2023-05-17T01:37:58.595Z,998.65
2023-05-17T01:38:09.067Z,998.65
2023-05-17T01:38:19.590Z,998.65
2023-05-17T01:38:30.083Z,998.65
2023-05-17T01:38:40.590Z,998.65
2023-05-17T01:38:51.103Z,998.65
2023-05-17T01:39:01.605Z,998.65
2023-05-17T01:39:12.089Z,998.65
2023-05-17T01:39:22.594Z,998.65
2023-05-17T01:39:33.218Z,998.66
2023-05-17T01:39:43.600Z,998.66
2023-05-17T01:39:54.111Z,998.66
2023-05-17T01:40:04.610Z,998.67
2023-05-17T01:40:15.106Z,998.67
2023-05-17T01:40:25.609Z,998.67
2023-05-17T01:40:36.135Z,998.67
2023-05-17T01:40:46.620Z,998.67
2023-05-17T01:40:57.116Z,998.67
2023-05-17T01:41:07.627Z,998.66
2023-05-17T01:41:18.156Z,998.66
2023-05-17T01:41:28.632Z,998.66
2023-05-17T01:41:39.135Z,998.66
2023-05-17T01:41:49.638Z,998.66
2023-05-17T01:42:00.141Z,998.66
2023-05-17T01:42:10.657Z,998.66
2023-05-17T01:42:21.155Z,998.66
2023-05-17T01:42:31.657Z,998.66
2023-05-17T01:42:42.177Z,998.66
2023-05-17T01:42:52.676Z,998.66
2023-05-17T01:43:03.187Z,998.66
2023-05-17T01:43:13.694Z,998.66
2023-05-17T01:43:24.202Z,998.66
2023-05-17T01:43:34.696Z,998.65
2023-05-17T01:43:45.201Z,998.66
2023-05-17T01:43:55.712Z,998.66
2023-05-17T01:44:06.216Z,998.66
2023-05-17T01:44:16.715Z,998.66
2023-05-17T01:44:27.231Z,998.66
2023-05-17T01:44:37.763Z,998.66
2023-05-17T01:44:48.261Z,998.66
2023-05-17T01:44:58.749Z,998.67
2023-05-17T01:45:09.258Z,998.67
2023-05-17T01:45:19.762Z,998.67
2023-05-17T01:45:30.437Z,998.67
2023-05-17T01:45:40.784Z,998.67
2023-05-17T01:45:51.284Z,998.68
2023-05-17T01:46:01.797Z,998.68
2023-05-17T01:46:12.295Z,998.68
2023-05-17T01:46:22.794Z,998.68
2023-05-17T01:46:33.293Z,998.68
2023-05-17T01:46:43.801Z,998.68
2023-05-17T01:46:54.300Z,998.69
2023-05-17T01:47:04.811Z,998.69
2023-05-17T01:47:15.324Z,998.70
2023-05-17T01:47:25.859Z,998.70
2023-05-17T01:47:36.354Z,998.71
2023-05-17T01:47:46.871Z,998.71
2023-05-17T01:47:57.368Z,998.71
2023-05-17T01:48:07.978Z,998.70
2023-05-17T01:48:18.436Z,998.71
2023-05-17T01:48:28.889Z,998.71
2023-05-17T01:48:39.363Z,998.71
2023-05-17T01:48:49.962Z,998.72
2023-05-17T01:49:00.419Z,998.72
2023-05-17T01:49:10.855Z,998.72
2023-05-17T01:49:21.360Z,998.72
2023-05-17T01:49:31.862Z,998.72
2023-05-17T01:49:42.393Z,998.72
2023-05-17T01:49:52.885Z,998.72
2023-05-17T01:50:03.376Z,998.73
2023-05-17T01:50:13.883Z,998.73
2023-05-17T01:50:24.382Z,998.73
2023-05-17T01:50:34.894Z,998.74
2023-05-17T01:50:45.395Z,998.74
2023-05-17T01:50:55.938Z,998.74
2023-05-17T01:51:06.386Z,998.74
2023-05-17T01:51:16.894Z,998.75
2023-05-17T01:51:27.395Z,998.75
2023-05-17T01:51:37.902Z,998.75
2023-05-17T01:51:48.522Z,998.76
2023-05-17T01:51:58.917Z,998.76
2023-05-17T01:52:09.422Z,998.76
2023-05-17T01:52:19.919Z,998.76
2023-05-17T01:52:30.427Z,998.76
2023-05-17T01:52:40.926Z,998.76
2023-05-17T01:52:51.432Z,998.76
2023-05-17T01:53:01.968Z,998.76
2023-05-17T01:53:12.436Z,998.76
2023-05-17T01:53:22.960Z,998.76
2023-05-17T01:53:33.446Z,998.76
2023-05-17T01:53:43.953Z,998.76
2023-05-17T01:53:54.449Z,998.76
2023-05-17T01:54:04.957Z,998.76
2023-05-17T01:54:15.457Z,998.76
2023-05-17T01:54:25.963Z,998.76
2023-05-17T01:54:36.465Z,998.76
2023-05-17T01:54:46.974Z,998.76
2023-05-17T01:54:57.479Z,998.75
2023-05-17T01:55:07.981Z,998.75
2023-05-17T01:55:18.483Z,998.75
2023-05-17T01:55:29.433Z,998.75
2023-05-17T01:55:39.505Z,998.75
2023-05-17T01:55:49.992Z,998.75
2023-05-17T01:56:00.494Z,998.74
2023-05-17T01:56:11.000Z,998.74
2023-05-17T01:56:21.511Z,998.74
2023-05-17T01:56:32.018Z,998.74
2023-05-17T01:56:42.540Z,998.73
2023-05-17T01:56:53.022Z,998.73
2023-05-17T01:57:03.539Z,998.73
2023-05-17T01:57:14.074Z,998.72
2023-05-17T01:57:24.533Z,998.72
2023-05-17T01:57:35.038Z,998.72
2023-05-17T01:57:45.552Z,998.71
2023-05-17T01:57:56.059Z,998.71
2023-05-17T01:58:06.557Z,998.71
2023-05-17T01:58:17.074Z,998.71
2023-05-17T01:58:27.574Z,998.70
2023-05-17T01:58:38.099Z,998.70
2023-05-17T01:58:48.639Z,998.69
2023-05-17T01:58:59.076Z,998.69
2023-05-17T01:59:09.593Z,998.69
2023-05-17T01:59:20.085Z,998.69
2023-05-17T01:59:30.617Z,998.68
2023-05-17T01:59:41.090Z,998.69
2023-05-17T01:59:51.612Z,998.69
2023-05-17T02:00:02.122Z,998.69
2023-05-17T02:00:12.681Z,998.69
2023-05-17T02:00:23.119Z,998.69
2023-05-17T02:00:33.625Z,998.69
2023-05-17T02:00:44.104Z,998.69
2023-05-17T02:00:54.941Z,998.69
2023-05-17T02:01:05.115Z,998.70
2023-05-17T02:01:15.632Z,998.70
2023-05-17T02:01:26.124Z,998.70
2023-05-17T02:01:36.624Z,998.70
2023-05-17T02:01:47.128Z,998.69
2023-05-17T02:01:57.636Z,998.69
2023-05-17T02:02:08.133Z,998.68
2023-05-17T02:02:18.641Z,998.68
2023-05-17T02:02:29.179Z,998.68
2023-05-17T02:02:39.724Z,998.68
2023-05-17T02:02:50.191Z,998.67
2023-05-17T02:03:00.762Z,998.67
2023-05-17T02:03:11.156Z,998.67
2023-05-17T02:03:21.727Z,998.67
2023-05-17T02:03:32.223Z,998.67
2023-05-17T02:03:42.679Z,998.67
2023-05-17T02:03:53.216Z,998.67
2023-05-17T02:04:03.780Z,998.67
2023-05-17T02:04:14.242Z,998.67
2023-05-17T02:04:25.245Z,998.67
2023-05-17T02:04:35.715Z,998.67
2023-05-17T02:04:46.208Z,998.66
2023-05-17T02:04:56.740Z,998.66
2023-05-17T02:05:07.288Z,998.67
2023-05-17T02:05:17.915Z,998.67
2023-05-17T02:05:28.378Z,998.67
2023-05-17T02:05:38.718Z,998.67
2023-05-17T02:05:49.205Z,998.67
2023-05-17T02:05:59.748Z,998.67
2023-05-17T02:06:10.209Z,998.66
2023-05-17T02:06:20.718Z,998.66
2023-05-17T02:06:31.217Z,998.66
2023-05-17T02:06:41.730Z,998.66
2023-05-17T02:06:52.433Z,998.65
2023-05-17T02:07:02.732Z,998.65
2023-05-17T02:07:13.225Z,998.66
2023-05-17T02:07:23.740Z,998.66
2023-05-17T02:07:34.225Z,998.66
2023-05-17T02:07:44.734Z,998.66
2023-05-17T02:07:55.234Z,998.66
2023-05-17T02:08:05.745Z,998.66
2023-05-17T02:08:16.251Z,998.66
2023-05-17T02:08:26.752Z,998.66
2023-05-17T02:08:37.244Z,998.66
2023-05-17T02:08:47.753Z,998.66
2023-05-17T02:08:58.261Z,998.66
2023-05-17T02:09:08.763Z,998.66
2023-05-17T02:09:19.275Z,998.65
2023-05-17T02:09:29.766Z,998.65
2023-05-17T02:09:40.317Z,998.65
2023-05-17T02:09:50.781Z,998.65
2023-05-17T02:10:01.366Z,998.65
2023-05-17T02:10:11.811Z,998.65
2023-05-17T02:10:22.287Z,998.65
2023-05-17T02:10:32.799Z,998.65
2023-05-17T02:10:43.286Z,998.66
2023-05-17T02:10:53.800Z,998.66
2023-05-17T02:11:04.334Z,998.66